Time;durP1;ratioP1;P1;durP2;ratioP2;P2;SDS_P1;SDS_P2;PMS_P1;PMS_P2;Temp;Humidity;BMP_temperature;BMP_pressure;BME280_temperature;BME280_humidity;BME280_pressure;Samples;Min_cycle;Max_cycle;Signal;HPM_P1;HPM_P2
2023/01/18 00:00:43;;;;;;;8.98;4.93;;;-1.40;99.90;;;;;;5035256;28;20394;-83
2023/01/18 00:03:10;;;;;;;8.63;4.60;;;-1.70;99.90;;;;;;5035117;28;20462;-83
2023/01/18 00:05:39;;;;;;;5.50;4.10;;;-1.60;99.90;;;;;;5017575;28;20405;-83
2023/01/18 00:08:10;;;;;;;5.50;4.43;;;-1.60;99.90;;;;;;5017683;28;20049;-83
2023/01/18 00:10:35;;;;;;;6.30;4.38;;;-1.60;99.90;;;;;;5035036;28;20090;-83
2023/01/18 00:13:01;;;;;;;11.27;4.82;;;-1.40;99.90;;;;;;5017387;28;20049;-83
2023/01/18 00:15:27;;;;;;;8.77;5.00;;;-1.60;99.90;;;;;;5000897;28;20571;-82
2023/01/18 00:17:53;;;;;;;7.95;5.15;;;-2.00;99.90;;;;;;5017330;28;20037;-83
2023/01/18 00:20:24;;;;;;;7.57;4.47;;;-1.60;99.90;;;;;;5034923;28;20090;-84
2023/01/18 00:22:50;;;;;;;9.18;4.95;;;-1.60;99.90;;;;;;5010171;28;20083;-83
2023/01/18 00:25:17;;;;;;;8.73;5.00;;;-1.00;99.90;;;;;;5001635;28;20049;-83
2023/01/18 00:27:48;;;;;;;5.72;4.10;;;-1.70;99.90;;;;;;5017441;28;20402;-83
2023/01/18 00:30:19;;;;;;;8.40;4.82;;;-1.70;99.90;;;;;;5000919;28;20425;-83
2023/01/18 00:32:45;;;;;;;8.23;5.30;;;-1.70;99.90;;;;;;5034658;28;20053;-83
2023/01/18 00:35:11;;;;;;;9.40;4.57;;;-1.80;99.90;;;;;;5000761;28;20132;-83
2023/01/18 00:37:37;;;;;;;6.13;4.03;;;-1.80;99.90;;;;;;5016533;28;20061;-82
2023/01/18 00:40:04;;;;;;;7.40;4.43;;;-0.80;99.90;;;;;;5034374;28;20068;-83
2023/01/18 00:45:14;;;;;;;9.63;5.10;;;-1.90;99.90;;;;;;5016792;28;19921;-82
2023/01/18 00:47:40;;;;;;;6.30;4.82;;;-1.80;99.90;;;;;;5016904;28;20053;-82
2023/01/18 00:50:06;;;;;;;6.82;4.63;;;-1.90;99.90;;;;;;5017040;28;20056;-83
2023/01/18 00:52:33;;;;;;;7.93;5.05;;;-1.80;99.90;;;;;;5034556;28;20045;-83
2023/01/18 00:54:59;;;;;;;6.03;5.00;;;-1.90;99.90;;;;;;5016632;28;20120;-83
2023/01/18 00:57:25;;;;;;;8.50;5.30;;;-1.90;99.90;;;;;;5016595;28;20112;-83
2023/01/18 00:59:50;;;;;;;7.05;5.35;;;-1.90;99.90;;;;;;5000487;28;20073;-83
2023/01/18 01:02:16;;;;;;;8.55;5.60;;;-2.00;99.90;;;;;;5034089;28;20050;-83
2023/01/18 01:07:26;;;;;;;8.60;5.85;;;-1.90;99.90;;;;;;5034247;28;20045;-83
2023/01/18 01:09:51;;;;;;;11.48;5.78;;;-2.00;99.90;;;;;;5034054;28;20077;-83
2023/01/18 01:26:04;;;;;;;11.77;6.60;;;-2.10;99.90;;;;;;5033929;28;20076;-83
2023/01/18 01:28:30;;;;;;;9.98;6.18;;;-2.10;99.90;;;;;;5016212;28;20109;-82
2023/01/18 01:30:57;;;;;;;11.73;5.82;;;-2.00;99.90;;;;;;5000424;28;20057;-83
2023/01/18 01:33:23;;;;;;;8.93;5.90;;;-2.10;99.90;;;;;;5016470;28;20045;-83
2023/01/18 01:35:48;;;;;;;9.05;5.65;;;-2.10;99.90;;;;;;5000418;28;20052;-83
2023/01/18 01:38:14;;;;;;;11.25;6.20;;;-2.10;99.90;;;;;;5016130;28;20406;-83
2023/01/18 01:40:40;;;;;;;10.40;6.00;;;-1.80;99.90;;;;;;5033658;28;20476;-83
2023/01/18 01:43:12;;;;;;;10.48;6.18;;;-2.20;99.90;;;;;;5000195;28;20055;-83
2023/01/18 01:45:37;;;;;;;9.75;6.35;;;-2.20;99.90;;;;;;5016567;28;20502;-83
2023/01/18 01:48:03;;;;;;;9.02;6.35;;;-2.20;99.90;;;;;;5033749;28;20055;-84
2023/01/18 01:50:38;;;;;;;8.25;5.70;;;-2.20;99.90;;;;;;5033417;28;20045;-83
2023/01/18 01:53:05;;;;;;;9.68;6.65;;;-2.20;99.90;;;;;;5034358;28;20042;-83
2023/01/18 01:55:31;;;;;;;;;;;-2.20;99.90;;;;;;5016220;28;20509;-83
2023/01/18 01:58:16;;;;;;;11.10;6.97;;;-2.10;99.90;;;;;;5015688;28;19984;-83
2023/01/18 02:00:42;;;;;;;10.02;7.07;;;-2.20;99.90;;;;;;5033288;28;20100;-83
2023/01/18 02:03:11;;;;;;;8.98;6.57;;;-2.20;99.90;;;;;;5016015;28;20056;-84
2023/01/18 02:05:42;;;;;;;10.23;7.05;;;-2.20;99.90;;;;;;4999531;28;20054;-84
2023/01/18 02:08:12;;;;;;;7.43;5.90;;;-2.20;99.90;;;;;;5015688;28;20041;-84
2023/01/18 02:10:38;;;;;;;8.48;6.25;;;-2.20;99.90;;;;;;5016031;28;20127;-83
2023/01/18 02:13:09;;;;;;;9.90;6.90;;;-2.20;99.90;;;;;;5015408;28;20486;-84
2023/01/18 02:16:12;;;;;;;11.90;6.70;;;-2.20;99.90;;;;;;5015385;28;20046;-83
2023/01/18 02:19:03;;;;;;;13.45;6.68;;;-2.20;99.90;;;;;;5033041;28;20089;-83
2023/01/18 02:21:47;;;;;;;9.55;6.38;;;-2.30;99.90;;;;;;4980765;28;20049;-83
2023/01/18 02:24:36;;;;;;;10.18;6.60;;;-2.30;99.90;;;;;;5032917;28;20470;-83
2023/01/18 02:27:07;;;;;;;;;;;-2.30;99.90;;;;;;5015935;28;20048;-83
2023/01/18 02:29:49;;;;;;;10.25;7.18;;;-3.00;99.90;;;;;;4999412;28;19929;-83
2023/01/18 02:32:28;;;;;;;11.57;7.07;;;-2.30;99.90;;;;;;5015788;28;20440;-83
2023/01/18 02:35:08;;;;;;;11.30;7.03;;;-2.30;99.90;;;;;;5015851;28;20108;-83
2023/01/18 02:37:55;;;;;;;11.75;6.80;;;-2.40;99.90;;;;;;5015881;28;20063;-83
2023/01/18 02:40:32;;;;;;;11.03;6.93;;;-2.40;99.90;;;;;;5036767;28;20567;-83
2023/01/18 02:48:36;;;;;;;10.50;6.82;;;-2.50;99.90;;;;;;5036796;28;20057;-83
2023/01/18 02:51:02;;;;;;;9.77;7.07;;;-2.50;99.90;;;;;;5019143;28;20049;-84
2023/01/18 02:53:29;;;;;;;12.23;6.90;;;-2.50;99.90;;;;;;5002750;28;20049;-83
2023/01/18 02:56:03;;;;;;;12.38;7.07;;;-2.50;99.90;;;;;;5002782;28;20045;-84
2023/01/18 02:58:46;;;;;;;9.52;6.82;;;-2.50;99.90;;;;;;5019385;28;20128;-83
2023/01/18 03:01:29;;;;;;;9.25;7.05;;;-2.30;99.90;;;;;;5002556;28;20136;-82
2023/01/18 03:04:03;;;;;;;10.23;7.22;;;-2.50;99.90;;;;;;5002786;28;20136;-84
2023/01/18 03:06:29;;;;;;;9.38;6.32;;;-2.50;99.90;;;;;;5002582;28;20046;-84
2023/01/18 03:08:56;;;;;;;11.05;7.05;;;-2.50;99.90;;;;;;5002481;28;20100;-83
2023/01/18 03:11:22;;;;;;;14.90;7.65;;;-2.40;99.90;;;;;;5018466;28;20041;-83
2023/01/18 03:13:56;;;;;;;12.02;7.18;;;-2.50;99.90;;;;;;5036113;28;20543;-83
2023/01/18 03:16:26;;;;;;;10.77;7.30;;;-1.90;99.90;;;;;;5019235;28;20053;-83
2023/01/18 03:19:00;;;;;;;10.82;7.15;;;-2.70;99.90;;;;;;5036437;28;20053;-83
2023/01/18 03:21:31;;;;;;;13.40;7.40;;;-2.50;99.90;;;;;;5018744;28;20087;-83
2023/01/18 03:24:01;;;;;;;11.25;7.40;;;-2.50;99.90;;;;;;5018711;28;20056;-83
2023/01/18 03:26:27;;;;;;;12.52;7.78;;;-1.50;99.90;;;;;;5018362;28;20053;-83
2023/01/18 03:34:44;;;;;;;11.02;7.60;;;-2.50;99.90;;;;;;5035736;28;20084;-83
2023/01/18 03:37:22;;;;;;;13.05;7.78;;;-2.50;99.90;;;;;;5001487;28;20053;-83
2023/01/18 03:40:02;;;;;;;14.43;7.70;;;-2.40;99.90;;;;;;5035374;28;20493;-84
2023/01/18 03:42:32;;;;;;;11.65;7.82;;;-2.40;99.90;;;;;;5018519;28;20057;-83
2023/01/18 03:45:28;;;;;;;11.52;7.63;;;-2.40;99.90;;;;;;5017873;28;20405;-83
2023/01/18 03:47:54;;;;;;;13.82;8.00;;;-2.40;99.90;;;;;;5030935;28;20049;-83
2023/01/18 03:50:26;;;;;;;10.32;6.93;;;-2.10;99.90;;;;;;5001330;28;20050;-83
2023/01/18 03:52:57;;;;;;;13.38;7.72;;;-2.40;99.90;;;;;;5018260;28;20096;-83
2023/01/18 03:55:30;;;;;;;12.27;8.00;;;-2.10;99.90;;;;;;5035260;28;20038;-84
2023/01/18 03:58:10;;;;;;;17.08;8.82;;;-1.90;99.90;;;;;;5001193;28;20046;-83
2023/01/18 04:00:36;;;;;;;9.48;7.32;;;-2.50;99.90;;;;;;5017685;28;20056;-83
2023/01/18 04:03:03;;;;;;;11.13;7.70;;;-2.50;99.90;;;;;;5017787;28;20046;-83
2023/01/18 04:05:29;;;;;;;13.10;8.27;;;-2.10;99.90;;;;;;5017615;28;20493;-84
2023/01/18 04:07:54;;;;;;;11.10;7.70;;;-2.50;99.90;;;;;;5035097;28;20041;-84
2023/01/18 04:10:20;;;;;;;10.18;7.43;;;-2.50;99.90;;;;;;5001297;28;20294;-84
2023/01/18 04:12:46;;;;;;;13.43;7.68;;;-2.90;99.90;;;;;;5001932;28;20052;-84
2023/01/18 04:15:11;;;;;;;11.57;7.63;;;-1.70;99.90;;;;;;5017428;28;20069;-83
2023/01/18 04:17:38;;;;;;;13.68;7.30;;;-2.50;99.90;;;;;;5034840;28;20499;-83
2023/01/18 04:20:04;;;;;;;14.48;8.27;;;-2.70;99.90;;;;;;5000952;28;20139;-83
2023/01/18 04:22:30;;;;;;;13.32;8.57;;;-2.50;99.90;;;;;;5034997;28;20071;-84
2023/01/18 04:24:56;;;;;;;11.70;8.63;;;-2.60;99.90;;;;;;5017140;28;20463;-83
2023/01/18 04:27:21;;;;;;;11.13;8.25;;;-2.50;99.90;;;;;;5017114;28;20052;-84
2023/01/18 04:29:47;;;;;;;11.52;8.43;;;-1.70;99.90;;;;;;5001304;28;20552;-83
2023/01/18 04:32:12;;;;;;;13.07;8.37;;;-2.50;99.90;;;;;;5017274;28;20103;-84
2023/01/18 04:34:38;;;;;;;12.50;8.60;;;-2.50;99.90;;;;;;5001012;28;20049;-84
2023/01/18 04:37:04;;;;;;;13.00;8.50;;;-1.90;99.90;;;;;;5000595;28;20481;-84
2023/01/18 04:39:29;;;;;;;14.17;8.33;;;-2.20;99.90;;;;;;5016958;28;20042;-83
2023/01/18 04:41:55;;;;;;;15.10;9.07;;;-2.50;99.90;;;;;;5001243;28;20136;-83
2023/01/18 04:44:20;;;;;;;15.15;9.60;;;-2.80;99.90;;;;;;5034506;28;20045;-83
2023/01/18 04:46:46;;;;;;;16.13;9.07;;;-2.50;99.90;;;;;;5034391;28;20049;-83
2023/01/18 04:49:14;;;;;;;15.23;8.75;;;-2.50;99.90;;;;;;5016529;28;20046;-84
2023/01/18 04:51:41;;;;;;;14.32;8.48;;;-2.50;99.90;;;;;;5000566;28;20046;-83
2023/01/18 04:54:07;;;;;;;14.38;8.65;;;-2.50;99.90;;;;;;5000455;28;20046;-83
2023/01/18 04:56:33;;;;;;;12.90;8.35;;;-2.00;99.90;;;;;;5034055;28;20077;-83
2023/01/18 04:58:59;;;;;;;14.20;9.10;;;-2.90;99.90;;;;;;5000543;28;20042;-83
2023/01/18 05:01:24;;;;;;;17.15;9.02;;;-2.50;99.90;;;;;;5033351;28;20049;-83
2023/01/18 05:03:52;;;;;;;14.38;8.50;;;-2.50;99.90;;;;;;5000429;28;20136;-83
2023/01/18 05:06:18;;;;;;;13.30;8.82;;;-1.70;99.90;;;;;;5016473;28;20559;-83
2023/01/18 05:08:44;;;;;;;16.52;9.73;;;-2.50;99.90;;;;;;5000255;28;20132;-83
2023/01/18 05:11:12;;;;;;;13.57;9.67;;;-2.50;99.90;;;;;;5016078;28;20091;-83
2023/01/18 05:13:39;;;;;;;14.95;8.60;;;-2.60;99.90;;;;;;5016489;28;20485;-83
2023/01/18 05:16:06;;;;;;;14.35;9.02;;;-2.60;99.90;;;;;;5016862;28;20423;-83
2023/01/18 05:18:32;;;;;;;14.93;8.65;;;-2.60;99.90;;;;;;5016619;28;20045;-83
2023/01/18 05:20:57;;;;;;;14.07;9.17;;;-2.60;99.90;;;;;;5015915;28;20520;-83
2023/01/18 05:23:23;;;;;;;13.13;8.68;;;-2.60;99.90;;;;;;5033903;28;20045;-83
2023/01/18 05:25:53;;;;;;;17.20;9.15;;;-3.40;99.90;;;;;;5000354;28;20064;-83
2023/01/18 05:28:19;;;;;;;14.75;8.88;;;-2.50;99.90;;;;;;5016623;28;20113;-83
2023/01/18 05:30:46;;;;;;;12.13;9.27;;;-2.60;99.90;;;;;;5034303;28;20489;-83
2023/01/18 05:33:12;;;;;;;13.18;9.30;;;-2.70;99.90;;;;;;5033838;28;20085;-83
2023/01/18 05:35:37;;;;;;;16.17;8.90;;;-3.40;99.90;;;;;;5016809;28;20072;-83
2023/01/18 05:38:03;;;;;;;16.63;8.63;;;-2.60;99.90;;;;;;4999644;28;20136;-83
2023/01/18 05:40:29;;;;;;;13.57;9.13;;;-3.00;99.90;;;;;;5016018;28;20152;-83
2023/01/18 05:42:54;;;;;;;18.58;7.45;;;-2.60;99.90;;;;;;5000458;28;20103;-83
2023/01/18 05:45:20;;;;;;;14.68;8.20;;;-2.00;99.90;;;;;;5015970;28;20154;-83
2023/01/18 05:47:45;;;;;;;20.77;9.02;;;-2.40;99.90;;;;;;5033545;28;20083;-83
2023/01/18 05:50:11;;;;;;;14.57;8.57;;;-2.60;99.90;;;;;;5015549;28;20482;-83
2023/01/18 05:52:37;;;;;;;11.70;8.17;;;-2.70;99.90;;;;;;5033467;28;20046;-83
2023/01/18 05:55:04;;;;;;;13.38;8.35;;;-2.70;99.90;;;;;;5033795;28;20042;-83
2023/01/18 05:57:30;;;;;;;14.07;9.15;;;-2.70;99.90;;;;;;5016384;28;20441;-83
2023/01/18 05:59:55;;;;;;;15.20;8.50;;;-1.50;99.90;;;;;;5015855;28;20046;-82
2023/01/18 06:02:21;;;;;;;11.93;8.52;;;-2.70;99.90;;;;;;5016203;28;20042;-82
2023/01/18 06:04:46;;;;;;;13.25;8.38;;;-2.70;99.90;;;;;;4999718;28;20049;-84
2023/01/18 06:07:13;;;;;;;13.68;8.82;;;-2.30;99.90;;;;;;5016089;28;20045;-81
2023/01/18 06:09:39;;;;;;;;;;;-2.70;99.90;;;;;;5016355;28;20434;-84
2023/01/18 06:12:05;;;;;;;14.48;8.68;;;-3.10;99.90;;;;;;5017379;28;19983;-86
2023/01/18 06:14:31;;;;;;;12.20;8.53;;;-2.70;99.90;;;;;;5003663;28;20092;-85
2023/01/18 06:16:56;;;;;;;16.23;9.20;;;-2.70;99.90;;;;;;5037183;28;20084;-87
2023/01/18 06:19:22;;;;;;;14.93;8.73;;;-2.70;99.90;;;;;;5019682;28;20514;-85
2023/01/18 06:21:48;;;;;;;15.43;9.38;;;-2.70;99.90;;;;;;5037120;28;20049;-84
2023/01/18 06:24:13;;;;;;;15.93;9.27;;;-2.70;99.90;;;;;;5003376;28;20069;-84
2023/01/18 06:26:39;;;;;;;17.20;9.77;;;-3.00;99.90;;;;;;5019792;28;20489;-85
2023/01/18 06:29:05;;;;;;;13.25;9.13;;;-2.80;99.90;;;;;;5003728;28;20389;-86
2023/01/18 06:31:30;;;;;;;15.98;9.90;;;-2.70;99.90;;;;;;5019600;28;20069;-84
2023/01/18 06:33:56;;;;;;;15.80;10.40;;;-3.00;99.90;;;;;;5037005;28;20041;-83
2023/01/18 06:36:22;;;;;;;15.05;9.38;;;-3.30;99.90;;;;;;5002747;28;20045;-87
2023/01/18 06:38:48;;;;;;;15.97;10.10;;;-3.30;99.90;;;;;;5019565;28;20049;-84
2023/01/18 06:41:14;;;;;;;15.45;9.40;;;-2.70;99.90;;;;;;5019345;28;20580;-85
2023/01/18 06:43:40;;;;;;;18.67;10.55;;;-2.70;99.90;;;;;;5002991;28;20052;-85
2023/01/18 06:46:08;;;;;;;16.25;9.85;;;-1.60;99.90;;;;;;5019305;28;20506;-86
2023/01/18 06:48:34;;;;;;;15.85;10.00;;;-2.80;99.90;;;;;;5036648;28;20048;-83
2023/01/18 06:51:00;;;;;;;16.10;10.38;;;-2.80;99.90;;;;;;5018972;28;20445;-83
2023/01/18 06:53:25;;;;;;;19.30;11.00;;;-3.30;99.90;;;;;;5036542;28;20038;-83
2023/01/18 06:56:00;;;;;;;16.55;10.40;;;-2.70;99.90;;;;;;5002803;28;20393;-81
2023/01/18 06:58:27;;;;;;;17.70;11.05;;;-2.70;99.90;;;;;;5002545;28;20038;-83
2023/01/18 07:00:57;;;;;;;18.48;10.88;;;-2.70;99.90;;;;;;5002717;28;20045;-79
2023/01/18 07:03:23;;;;;;;18.63;11.38;;;-2.70;99.90;;;;;;5018780;28;20056;-78
2023/01/18 07:05:49;;;;;;;15.88;10.90;;;-2.70;99.90;;;;;;5036052;28;20056;-78
2023/01/18 07:08:15;;;;;;;18.73;11.13;;;-2.80;99.90;;;;;;5036352;28;20053;-80
2023/01/18 07:10:40;;;;;;;18.23;12.23;;;-2.10;99.90;;;;;;5036949;28;20053;-79
2023/01/18 07:13:06;;;;;;;22.73;12.02;;;-3.00;99.90;;;;;;5036687;28;20505;-77
2023/01/18 07:15:32;;;;;;;22.43;12.33;;;-2.70;99.90;;;;;;5036646;28;20112;-76
2023/01/18 07:17:57;;;;;;;21.57;12.87;;;-2.80;99.90;;;;;;5036779;28;20048;-76
2023/01/18 07:20:23;;;;;;;21.30;11.77;;;-2.80;99.90;;;;;;5036762;28;20045;-78
2023/01/18 07:22:51;;;;;;;20.13;12.15;;;-2.80;99.90;;;;;;5037017;28;20045;-82
2023/01/18 07:25:19;;;;;;;20.45;12.73;;;-2.80;99.90;;;;;;5034319;28;20048;-81
2023/01/18 07:27:47;;;;;;;21.80;12.82;;;-2.80;99.90;;;;;;5033698;28;20041;-81
2023/01/18 07:30:13;;;;;;;23.52;13.93;;;-2.80;99.90;;;;;;5035021;28;20041;-78
2023/01/18 07:32:43;;;;;;;20.52;12.35;;;-2.70;99.90;;;;;;5017790;28;20128;-81
2023/01/18 07:35:09;;;;;;;23.50;12.82;;;-2.80;99.90;;;;;;5034196;28;20116;-79
2023/01/18 07:37:35;;;;;;;19.80;13.63;;;-2.20;99.90;;;;;;5001076;28;20140;-81
2023/01/18 07:40:01;;;;;;;26.30;12.38;;;-2.70;99.90;;;;;;5017734;28;20033;-82
2023/01/18 07:42:27;;;;;;;25.30;14.60;;;-2.00;99.90;;;;;;5018535;28;20041;-81
2023/01/18 07:44:53;;;;;;;22.05;12.93;;;-3.40;99.90;;;;;;5001804;28;20191;-81
2023/01/18 07:47:19;;;;;;;21.50;12.77;;;-2.70;99.90;;;;;;5018168;28;20132;-81
2023/01/18 07:49:44;;;;;;;25.95;13.43;;;-2.70;99.90;;;;;;5035521;28;20056;-81
2023/01/18 07:52:10;;;;;;;19.73;12.75;;;-3.40;99.90;;;;;;5035490;28;20489;-83
2023/01/18 07:54:36;;;;;;;22.27;12.57;;;-3.20;99.90;;;;;;5035493;28;20052;-82
2023/01/18 07:57:02;;;;;;;21.30;12.50;;;-2.60;99.90;;;;;;5017909;28;20037;-82
2023/01/18 07:59:29;;;;;;;20.40;12.80;;;-2.00;99.90;;;;;;5001434;28;20052;-82
2023/01/18 08:01:55;;;;;;;22.70;14.48;;;-2.70;99.90;;;;;;5035224;28;20049;-82
2023/01/18 08:04:21;;;;;;;20.17;13.18;;;-3.40;99.90;;;;;;5034920;28;20045;-81
2023/01/18 08:06:46;;;;;;;20.55;13.02;;;-2.90;99.90;;;;;;5035313;28;20096;-83
2023/01/18 08:09:12;;;;;;;21.27;13.03;;;-2.60;99.90;;;;;;5017907;28;20055;-82
2023/01/18 08:11:37;;;;;;;27.77;13.07;;;-2.60;99.90;;;;;;5002223;28;20049;-82
2023/01/18 08:14:03;;;;;;;22.17;13.33;;;-2.50;99.90;;;;;;5018008;28;20049;-83
2023/01/18 08:16:29;;;;;;;24.07;13.13;;;-2.60;99.90;;;;;;5035524;28;20045;-81
2023/01/18 08:18:55;;;;;;;24.10;13.07;;;-2.50;99.90;;;;;;5018310;28;20064;-82
2023/01/18 08:21:20;;;;;;;21.52;13.43;;;-2.50;99.90;;;;;;5035288;28;20415;-81
2023/01/18 08:23:46;;;;;;;20.90;12.20;;;-3.00;99.90;;;;;;5035535;28;20053;-84
2023/01/18 08:26:13;;;;;;;25.38;11.73;;;-2.40;99.90;;;;;;5034944;28;20107;-82
2023/01/18 08:28:40;;;;;;;17.85;11.82;;;-2.30;99.90;;;;;;5034799;28;20053;-82
2023/01/18 08:31:14;;;;;;;19.90;12.70;;;-1.30;99.90;;;;;;5017269;28;20049;-82
2023/01/18 08:33:43;;;;;;;24.80;12.82;;;-2.20;99.90;;;;;;5001000;28;20532;-81
2023/01/18 08:36:10;;;;;;;22.27;12.45;;;-2.20;99.90;;;;;;5032542;28;20061;-82
2023/01/18 08:38:35;;;;;;;;;;;-2.10;99.90;;;;;;5015426;28;20053;-82
2023/01/18 08:41:02;;;;;;;18.10;11.73;;;-2.00;99.90;;;;;;5015482;28;19921;-84
2023/01/18 08:43:28;;;;;;;25.13;12.30;;;-2.00;99.90;;;;;;4998034;28;20045;-84
2023/01/18 08:45:53;;;;;;;15.98;11.15;;;-2.70;99.90;;;;;;4997911;28;20048;-84
2023/01/18 08:48:19;;;;;;;18.20;12.15;;;-1.80;99.90;;;;;;4998096;28;20092;-81
2023/01/18 08:50:45;;;;;;;18.13;10.52;;;-1.70;99.90;;;;;;4997795;28;20056;-82
2023/01/18 08:53:12;;;;;;;16.15;10.43;;;-1.80;99.90;;;;;;4997857;28;20043;-85
2023/01/18 08:55:39;;;;;;;17.48;11.85;;;-1.60;99.90;;;;;;4981262;28;20061;-87
2023/01/18 08:58:05;;;;;;;16.73;11.25;;;-1.50;99.90;;;;;;5014564;28;20046;-82
2023/01/18 09:00:31;;;;;;;14.88;10.50;;;-1.50;99.90;;;;;;5014526;28;20046;-82
2023/01/18 09:02:57;;;;;;;15.32;10.48;;;-1.40;99.90;;;;;;4996857;28;20069;-82
2023/01/18 09:05:24;;;;;;;14.00;10.02;;;-1.50;99.90;;;;;;5007712;28;20049;-81
2023/01/18 09:07:52;;;;;;;18.10;10.52;;;-1.30;99.90;;;;;;5013962;28;20049;-80
2023/01/18 09:10:20;;;;;;;18.65;10.45;;;-0.70;99.90;;;;;;4996768;28;20053;-81
2023/01/18 09:12:46;;;;;;;13.18;9.70;;;-0.40;99.90;;;;;;5014128;28;20049;-82
2023/01/18 09:15:12;;;;;;;16.20;10.00;;;-1.10;99.90;;;;;;4996654;28;20104;-82
2023/01/18 09:17:37;;;;;;;17.02;9.35;;;-1.50;99.90;;;;;;4996385;28;20093;-82
2023/01/18 09:20:08;;;;;;;15.48;9.02;;;-0.90;99.90;;;;;;5014110;28;20544;-82
2023/01/18 09:22:34;;;;;;;15.10;10.25;;;-0.80;99.90;;;;;;4980604;28;20073;-81
2023/01/18 09:25:00;;;;;;;18.00;10.35;;;-0.80;99.90;;;;;;5014031;28;20478;-81
2023/01/18 09:27:25;;;;;;;18.00;10.68;;;-0.70;99.90;;;;;;4981018;28;20041;-82
2023/01/18 09:29:51;;;;;;;16.85;9.57;;;-0.50;99.90;;;;;;5014457;28;20445;-81
2023/01/18 09:32:18;;;;;;;16.63;10.48;;;-0.50;99.90;;;;;;4997042;28;20049;-80
2023/01/18 09:34:48;;;;;;;;;;;-0.40;99.90;;;;;;4997391;28;20046;-81
2023/01/18 09:37:13;;;;;;;17.77;10.45;;;-0.40;99.90;;;;;;5005817;28;19921;-82
2023/01/18 09:39:39;;;;;;;16.23;9.45;;;-0.30;99.90;;;;;;5033836;28;20583;-81
2023/01/18 09:42:17;;;;;;;13.57;8.73;;;-0.30;99.90;;;;;;5033401;28;20486;-82
2023/01/18 09:44:44;;;;;;;15.88;8.95;;;-0.20;99.90;;;;;;5015911;28;20121;-82
2023/01/18 09:47:41;;;;;;;17.67;9.35;;;-0.10;99.90;;;;;;5015387;28;20175;-81
2023/01/18 09:50:14;;;;;;;14.02;8.45;;;0.00;99.90;;;;;;5016134;28;20053;-79
2023/01/18 09:52:51;;;;;;;14.00;8.25;;;0.10;99.90;;;;;;5033223;28;20107;-81
2023/01/18 09:55:37;;;;;;;15.10;8.93;;;0.20;99.90;;;;;;5015611;28;20064;-81
2023/01/18 09:58:18;;;;;;;14.95;9.27;;;0.20;99.90;;;;;;5000229;28;20048;-87
2023/01/18 10:00:47;;;;;;;10.98;8.10;;;0.30;99.90;;;;;;5016298;28;20129;-86
2023/01/18 10:03:34;;;;;;;12.57;8.82;;;0.40;99.90;;;;;;5016337;28;20049;-85
2023/01/18 10:06:10;;;;;;;12.33;8.30;;;0.50;99.90;;;;;;5033889;28;20045;-82
2023/01/18 10:08:50;;;;;;;14.82;8.35;;;0.60;99.90;;;;;;5033449;28;20048;-84
2023/01/18 10:11:32;;;;;;;13.52;8.85;;;0.70;99.90;;;;;;5016016;28;20092;-82
2023/01/18 10:14:07;;;;;;;14.27;7.35;;;0.80;99.90;;;;;;5033539;28;20087;-85
2023/01/18 10:16:36;;;;;;;12.85;7.85;;;0.90;99.90;;;;;;4999483;28;20044;-83
2023/01/18 10:19:02;;;;;;;12.50;7.65;;;1.00;99.90;;;;;;5015787;28;20515;-80
2023/01/18 10:22:02;;;;;;;10.93;7.00;;;1.00;99.90;;;;;;5033123;28;20049;-81
2023/01/18 10:24:48;;;;;;;13.27;7.78;;;1.10;99.90;;;;;;5032990;28;20033;-80
2023/01/18 10:27:34;;;;;;;11.90;7.50;;;1.20;99.90;;;;;;5015893;28;20049;-82
2023/01/18 10:30:15;;;;;;;12.05;7.22;;;1.20;99.90;;;;;;5016030;28;20158;-80
2023/01/18 10:32:49;;;;;;;11.73;6.68;;;1.30;99.90;;;;;;5033392;28;20133;-81
2023/01/18 10:35:26;;;;;;;10.77;7.50;;;1.30;99.90;;;;;;5033250;28;20045;-81
2023/01/18 10:37:56;;;;;;;10.98;6.57;;;1.40;99.90;;;;;;5032995;28;20050;-80
2023/01/18 10:40:22;;;;;;;9.73;6.95;;;1.40;99.90;;;;;;5033217;28;20045;-80
2023/01/18 10:42:51;;;;;;;9.45;6.63;;;1.50;99.90;;;;;;5015369;28;20049;-78
2023/01/18 10:45:29;;;;;;;10.02;6.68;;;1.50;99.90;;;;;;5033010;28;20494;-79
2023/01/18 10:47:57;;;;;;;10.75;6.80;;;1.50;99.90;;;;;;5032857;28;20042;-80
2023/01/18 10:50:33;;;;;;;12.27;6.18;;;1.60;99.90;;;;;;5015737;28;20143;-77
2023/01/18 10:53:30;;;;;;;10.50;6.27;;;1.60;99.90;;;;;;5032663;28;20041;-80
2023/01/18 10:56:24;;;;;;;12.55;6.63;;;1.60;99.90;;;;;;5032586;28;20064;-83
2023/01/18 10:58:49;;;;;;;11.05;6.28;;;1.70;99.90;;;;;;5011983;28;20200;-82
2023/01/18 11:01:21;;;;;;;10.02;6.15;;;1.80;99.90;;;;;;5018987;28;20120;-82
2023/01/18 11:03:50;;;;;;;10.85;6.40;;;1.80;99.90;;;;;;5036282;28;20502;-76
2023/01/18 11:06:19;;;;;;;9.52;6.72;;;1.80;99.90;;;;;;5036107;28;20047;-78
2023/01/18 11:08:46;;;;;;;12.15;7.15;;;1.90;99.90;;;;;;5036064;28;20045;-83
2023/01/18 11:14:32;;;;;;;11.07;6.22;;;1.90;99.90;;;;;;5036234;28;20049;-81
2023/01/18 11:17:01;;;;;;;9.02;6.30;;;2.00;99.90;;;;;;5036135;28;20038;-80
2023/01/18 11:19:27;;;;;;;8.88;6.03;;;2.00;99.90;;;;;;5036059;28;20060;-78
2023/01/18 11:21:54;;;;;;;8.23;6.00;;;2.10;99.90;;;;;;5035642;28;20046;-81
2023/01/18 11:24:30;;;;;;;9.95;6.18;;;2.10;99.90;;;;;;5018423;28;20042;-82
2023/01/18 11:27:12;;;;;;;12.73;6.60;;;2.20;99.90;;;;;;5035808;28;20056;-84
2023/01/18 11:29:42;;;;;;;10.13;6.70;;;2.20;99.90;;;;;;5018394;28;20049;-83
2023/01/18 11:32:23;;;;;;;9.98;6.40;;;2.30;99.90;;;;;;5035775;28;20049;-81
2023/01/18 11:34:54;;;;;;;7.43;5.88;;;2.30;99.90;;;;;;5035755;28;20128;-81
2023/01/18 11:37:33;;;;;;;9.00;6.15;;;2.40;99.90;;;;;;5035475;28;20172;-79
2023/01/18 11:40:19;;;;;;;9.27;6.38;;;2.50;99.90;;;;;;5035824;28;20046;-79
2023/01/18 11:42:47;;;;;;;7.53;5.70;;;2.50;99.90;;;;;;5035642;28;20041;-80
2023/01/18 11:45:31;;;;;;;12.35;6.82;;;2.50;99.90;;;;;;5035452;28;20088;-78
2023/01/18 11:48:19;;;;;;;8.73;6.18;;;2.50;99.90;;;;;;5035523;28;20046;-81
2023/01/18 11:50:54;;;;;;;9.77;6.45;;;2.60;99.90;;;;;;5009993;28;20111;-79
2023/01/18 11:54:00;;;;;;;9.07;5.90;;;2.60;99.90;;;;;;5035456;28;20041;-80
2023/01/18 11:56:46;;;;;;;11.52;5.80;;;2.70;99.90;;;;;;5017583;28;20095;-80
2023/01/18 11:59:30;;;;;;;12.20;6.28;;;2.80;99.90;;;;;;5035903;28;20045;-79
2023/01/18 12:02:29;;;;;;;8.00;6.18;;;2.80;99.90;;;;;;5018129;28;20092;-80
2023/01/18 12:05:21;;;;;;;9.23;5.88;;;2.90;99.90;;;;;;5017688;28;20433;-79
2023/01/18 12:08:05;;;;;;;9.70;6.03;;;2.90;99.90;;;;;;5035773;28;20052;-80
2023/01/18 12:11:16;;;;;;;9.35;5.75;;;2.90;99.90;;;;;;5035026;28;20046;-79
2023/01/18 12:13:59;;;;;;;10.40;5.60;;;3.00;99.90;;;;;;5035065;28;20119;-79
2023/01/18 12:17:07;;;;;;;12.05;6.57;;;3.00;99.90;;;;;;5017163;28;20041;-81
2023/01/18 12:20:03;;;;;;;9.68;5.75;;;3.10;99.90;;;;;;4937853;29;20134;-80
2023/01/18 12:23:08;;;;;;;10.35;5.97;;;3.10;99.90;;;;;;5033624;28;20183;-83
2023/01/18 12:25:45;;;;;;;14.75;6.47;;;3.10;99.90;;;;;;5034524;28;20052;-81
2023/01/18 12:28:46;;;;;;;9.73;5.60;;;3.20;99.90;;;;;;5015579;28;20486;-80
2023/01/18 12:31:53;;;;;;;8.77;5.75;;;3.20;99.90;;;;;;5034552;28;20053;-80
2023/01/18 12:34:46;;;;;;;8.60;6.13;;;3.20;99.90;;;;;;5016068;28;20370;-80
2023/01/18 12:37:48;;;;;;;7.45;5.22;;;3.20;99.90;;;;;;4993436;28;20500;-79
2023/01/18 12:40:41;;;;;;;9.63;6.30;;;3.30;99.90;;;;;;4987574;28;20191;-78
2023/01/18 12:43:10;;;;;;;11.30;6.10;;;3.30;99.90;;;;;;5034794;28;20095;-78
2023/01/18 12:45:40;;;;;;;9.48;6.18;;;3.30;99.90;;;;;;5034717;28;20089;-77
2023/01/18 12:48:14;;;;;;;7.75;5.72;;;3.30;99.90;;;;;;5034463;28;20095;-80
2023/01/18 12:50:42;;;;;;;8.75;5.32;;;3.40;99.90;;;;;;5034786;28;20049;-80
2023/01/18 12:53:18;;;;;;;11.60;5.60;;;3.40;99.90;;;;;;5034847;28;20045;-80
2023/01/18 12:55:48;;;;;;;9.77;5.93;;;3.50;99.90;;;;;;5017407;28;20048;-77
2023/01/18 12:58:19;;;;;;;8.63;5.72;;;3.50;99.90;;;;;;5035333;28;20078;-80
2023/01/18 13:00:53;;;;;;;9.98;5.53;;;3.50;99.90;;;;;;5018120;28;20374;-80
2023/01/18 13:03:24;;;;;;;8.88;5.10;;;3.50;99.90;;;;;;5035514;28;20045;-80
2023/01/18 13:05:59;;;;;;;9.20;5.43;;;3.50;99.90;;;;;;5035392;28;20057;-77
2023/01/18 13:08:48;;;;;;;7.43;4.90;;;3.50;99.90;;;;;;5034795;28;20560;-78
2023/01/18 13:11:22;;;;;;;7.80;5.03;;;3.60;99.90;;;;;;5034482;28;20092;-78
2023/01/18 13:14:09;;;;;;;7.07;5.20;;;3.50;99.90;;;;;;5011090;28;20493;-80
2023/01/18 13:17:08;;;;;;;8.23;5.38;;;3.50;99.90;;;;;;5047365;28;20547;-76
2023/01/18 13:19:40;;;;;;;8.88;5.25;;;3.60;99.90;;;;;;5013879;28;20096;-77
2023/01/18 13:22:34;;;;;;;7.07;4.60;;;3.60;99.90;;;;;;4996106;28;20045;-77
2023/01/18 13:25:20;;;;;;;8.23;5.57;;;3.60;99.90;;;;;;5014004;28;20050;-79
2023/01/18 13:28:04;;;;;;;7.65;5.07;;;3.60;99.90;;;;;;5013214;28;20060;-78
2023/01/18 13:30:32;;;;;;;8.45;4.80;;;3.60;99.90;;;;;;5013827;28;20054;-77
2023/01/18 13:32:59;;;;;;;6.55;5.32;;;3.50;99.90;;;;;;5013649;28;20045;-78
2023/01/18 13:35:32;;;;;;;8.93;4.88;;;3.50;99.90;;;;;;5013943;28;20085;-77